Time;durP1;ratioP1;P1;durP2;ratioP2;P2;SDS_P1;SDS_P2;PMS_P1;PMS_P2;Temp;Humidity;BMP_temperature;BMP_pressure;BME280_temperature;BME280_humidity;BME280_pressure;Samples;Min_cycle;Max_cycle;Signal;HPM_P1;HPM_P2
2022/08/13 00:01:37;;;;;;;;;;;20.50;54.30;;;;;;4982856;28;19913;-84
2022/08/13 00:04:06;;;;;;;;;;;20.50;53.60;;;;;;4965936;28;19918;-84
2022/08/13 00:09:04;;;;;;;;;;;20.40;54.90;;;;;;4986741;28;19933;-86
2022/08/13 00:14:22;;;;;;;;;;;20.40;54.30;;;;;;4979817;28;19964;-82
2022/08/13 00:16:48;;;;;;;;;;;20.30;54.50;;;;;;4990034;28;19960;-88
2022/08/13 00:19:13;;;;;;;;;;;20.30;54.30;;;;;;4973947;28;20292;-86
2022/08/13 00:21:39;;;;;;;;;;;20.30;54.00;;;;;;4974520;28;19914;-84
2022/08/13 00:24:04;;;;;;;;;;;20.20;54.80;;;;;;4970361;28;19922;-85
2022/08/13 00:26:31;;;;;;;;;;;20.10;54.30;;;;;;4989084;28;19997;-87
2022/08/13 00:28:57;;;;;;;;;;;20.10;54.80;;;;;;4990823;28;19921;-87
2022/08/13 00:31:23;;;;;;;;;;;20.10;55.30;;;;;;4963863;28;19960;-83
2022/08/13 00:33:48;;;;;;;;;;;20.10;55.70;;;;;;4978266;28;19987;-83
2022/08/13 00:36:15;;;;;;;;;;;20.10;53.60;;;;;;4985447;28;19945;-85
2022/08/13 00:38:46;;;;;;;;;;;20.10;54.60;;;;;;4974225;28;20382;-84
2022/08/13 00:41:37;;;;;;;;;;;20.10;54.50;;;;;;4989593;28;19983;-83
2022/08/13 00:44:00;;;;;;;;;;;20.10;54.40;;;;;;4986505;28;19921;-84
2022/08/13 00:46:26;;;;;;;;;;;20.00;54.20;;;;;;4990343;28;19926;-83
2022/08/13 00:48:53;;;;;;;;;;;19.90;54.90;;;;;;4986487;28;19926;-84
2022/08/13 00:51:22;;;;;;;;;;;19.90;54.50;;;;;;4971525;28;19918;-84
2022/08/13 00:53:48;;;;;;;;;;;19.90;54.50;;;;;;4968236;28;19914;-82
2022/08/13 00:56:14;;;;;;;;;;;19.90;55.00;;;;;;4992012;28;19918;-82
2022/08/13 00:58:41;;;;;;;;;;;19.80;54.60;;;;;;4981003;28;19918;-83
2022/08/13 01:01:07;;;;;;;;;;;19.90;54.60;;;;;;4988150;28;19989;-82
2022/08/13 01:03:34;;;;;;;;;;;19.80;55.10;;;;;;4983335;28;20189;-83
2022/08/13 01:06:01;;;;;;;;;;;19.80;54.60;;;;;;4988055;28;19959;-83
2022/08/13 01:08:31;;;;;;;;;;;19.70;55.20;;;;;;4981785;28;19918;-83
2022/08/13 01:11:00;;;;;;;;;;;19.60;55.90;;;;;;4968962;28;19917;-82
2022/08/13 01:13:26;;;;;;;;;;;19.60;55.40;;;;;;4974765;28;20320;-82
2022/08/13 01:15:51;;;;;;;;;;;19.60;55.60;;;;;;4972079;28;19913;-82
2022/08/13 01:18:19;;;;;;;;;;;19.60;56.50;;;;;;4980597;28;19985;-83
2022/08/13 01:20:46;;;;;;;;;;;19.60;56.30;;;;;;5010652;28;20061;-83
2022/08/13 01:23:14;;;;;;;;;;;19.60;56.30;;;;;;4979467;28;19964;-84
2022/08/13 01:25:40;;;;;;;;;;;19.50;55.70;;;;;;4994299;28;19910;-81
2022/08/13 01:28:06;;;;;;;;;;;19.50;56.60;;;;;;4988296;28;20269;-80
2022/08/13 01:30:32;;;;;;;;;;;19.50;56.50;;;;;;4998212;28;19925;-83
2022/08/13 01:32:58;;;;;;;;;;;19.40;56.80;;;;;;4992565;28;19925;-82
2022/08/13 01:35:24;;;;;;;;;;;19.40;56.60;;;;;;4992640;28;19937;-82
2022/08/13 01:37:53;;;;;;;;;;;19.40;56.20;;;;;;4976577;28;19914;-82
2022/08/13 01:40:19;;;;;;;;;;;19.30;56.80;;;;;;5000357;28;19909;-82
2022/08/13 01:42:45;;;;;;;;;;;19.40;57.30;;;;;;4983922;28;19948;-81
2022/08/13 01:45:11;;;;;;;;;;;19.40;56.80;;;;;;4993759;28;19920;-81
2022/08/13 01:50:31;;;;;;;;;;;19.20;57.40;;;;;;4986890;28;19924;-83
2022/08/13 01:53:01;;;;;;;;;;;19.20;57.80;;;;;;4987728;28;19976;-81
2022/08/13 01:55:45;;;;;;;;;;;19.20;57.90;;;;;;4974088;28;19914;-82
2022/08/13 01:58:12;;;;;;;;;;;19.20;56.20;;;;;;4993327;28;19922;-82
2022/08/13 02:00:39;;;;;;;;;;;19.30;55.90;;;;;;5007385;28;19913;-82
2022/08/13 02:03:09;;;;;;;;;;;19.20;56.70;;;;;;4990583;28;19918;-81
2022/08/13 02:05:36;;;;;;;;;;;19.20;55.80;;;;;;5005304;28;19921;-82
2022/08/13 02:08:02;;;;;;;;;;;19.20;56.20;;;;;;4994989;28;19946;-82
2022/08/13 02:10:28;;;;;;;;;;;19.20;56.60;;;;;;4995401;28;20000;-82
2022/08/13 02:12:53;;;;;;;;;;;19.10;56.80;;;;;;4994188;28;19922;-82
2022/08/13 02:15:19;;;;;;;;;;;19.10;57.40;;;;;;4974578;28;19914;-82
2022/08/13 02:17:45;;;;;;;;;;;19.00;58.20;;;;;;4978535;28;19925;-82
2022/08/13 02:20:17;;;;;;;;;;;19.00;58.10;;;;;;4975711;28;19918;-81
2022/08/13 02:22:46;;;;;;;;;;;19.00;58.00;;;;;;4994337;28;19914;-82
2022/08/13 02:25:13;;;;;;;;;;;19.00;56.70;;;;;;4989636;28;19922;-82
2022/08/13 02:27:40;;;;;;;;;;;19.00;57.90;;;;;;4996267;28;19956;-82
2022/08/13 02:30:07;;;;;;;;;;;19.00;58.40;;;;;;4985729;28;19979;-82
2022/08/13 02:32:34;;;;;;;;;;;19.00;57.90;;;;;;4982306;28;19921;-82
2022/08/13 02:34:59;;;;;;;;;;;19.00;57.90;;;;;;4988165;28;20297;-82
2022/08/13 02:37:25;;;;;;;;;;;19.00;58.30;;;;;;4997564;28;19918;-82
2022/08/13 02:39:51;;;;;;;;;;;18.90;57.80;;;;;;5002983;28;20000;-82
2022/08/13 02:42:17;;;;;;;;;;;18.90;58.10;;;;;;4971930;28;20259;-83
2022/08/13 02:44:44;;;;;;;;;;;18.90;59.10;;;;;;4988231;28;19950;-83
2022/08/13 02:47:13;;;;;;;;;;;18.90;57.60;;;;;;4998846;28;20004;-83
2022/08/13 02:49:40;;;;;;;;;;;18.80;57.50;;;;;;5004882;28;19922;-83
2022/08/13 02:52:08;;;;;;;;;;;18.90;56.50;;;;;;5004208;28;19918;-83
2022/08/13 02:54:37;;;;;;;;;;;18.90;57.10;;;;;;4997204;28;20296;-83
2022/08/13 02:57:03;;;;;;;;;;;18.80;57.70;;;;;;5003706;28;19963;-83
2022/08/13 02:59:28;;;;;;;;;;;18.90;56.90;;;;;;5006785;28;19913;-83
2022/08/13 03:01:54;;;;;;;;;;;18.80;57.50;;;;;;4977674;28;20387;-83
2022/08/13 03:04:20;;;;;;;;;;;18.80;57.70;;;;;;4993689;28;19926;-83
2022/08/13 03:06:45;;;;;;;;;;;18.80;57.50;;;;;;4991195;28;19914;-82
2022/08/13 03:09:11;;;;;;;;;;;18.70;58.50;;;;;;4981109;28;19964;-83
2022/08/13 03:11:36;;;;;;;;;;;18.60;58.70;;;;;;4991635;28;19981;-83
2022/08/13 03:14:02;;;;;;;;;;;18.60;59.20;;;;;;4983144;28;19914;-83
2022/08/13 03:16:28;;;;;;;;;;;18.60;59.60;;;;;;4992952;28;19972;-83
2022/08/13 03:18:54;;;;;;;;;;;18.60;59.50;;;;;;4980699;28;19941;-83
2022/08/13 03:21:23;;;;;;;;;;;18.50;58.90;;;;;;4992402;28;19962;-83
2022/08/13 03:23:50;;;;;;;;;;;18.50;59.50;;;;;;4995261;28;19979;-83
2022/08/13 03:26:16;;;;;;;;;;;18.50;58.80;;;;;;4998062;28;20384;-83
2022/08/13 03:28:41;;;;;;;;;;;18.50;59.50;;;;;;4993575;28;19918;-83
2022/08/13 03:31:07;;;;;;;;;;;18.40;59.50;;;;;;4987221;28;19913;-83
2022/08/13 03:33:32;;;;;;;;;;;18.40;58.60;;;;;;5003198;28;19914;-82
2022/08/13 03:35:58;;;;;;;;;;;18.40;59.20;;;;;;4999401;28;19914;-83
2022/08/13 03:38:23;;;;;;;;;;;18.40;59.70;;;;;;4976534;28;19964;-83
2022/08/13 03:41:01;;;;;;;;;;;18.40;59.40;;;;;;4992591;28;20254;-83
2022/08/13 03:43:27;;;;;;;;;;;18.40;59.30;;;;;;5000403;28;19996;-83
2022/08/13 03:45:54;;;;;;;;;;;18.30;59.50;;;;;;4983455;28;19956;-83
2022/08/13 03:48:20;;;;;;;;;;;18.30;59.70;;;;;;4991953;28;19928;-83
2022/08/13 03:50:46;;;;;;;;;;;18.30;60.00;;;;;;4993531;28;20004;-83
2022/08/13 03:53:12;;;;;;;;;;;18.20;60.00;;;;;;4992909;28;19914;-82
2022/08/13 03:55:39;;;;;;;;;;;18.30;59.90;;;;;;4981654;28;20016;-83
2022/08/13 03:58:06;;;;;;;;;;;18.30;59.60;;;;;;4999516;28;19924;-83
2022/08/13 04:00:32;;;;;;;;;;;18.30;60.10;;;;;;5002187;28;19917;-83
2022/08/13 04:03:00;;;;;;;;;;;18.20;59.80;;;;;;4990813;28;19932;-83
2022/08/13 04:05:26;;;;;;;;;;;18.20;60.60;;;;;;4980963;28;19960;-82
2022/08/13 04:07:52;;;;;;;;;;;18.20;60.00;;;;;;4995070;28;19918;-83
2022/08/13 04:10:18;;;;;;;;;;;18.10;60.10;;;;;;5002615;28;19920;-83
2022/08/13 04:12:44;;;;;;;;;;;18.10;60.00;;;;;;4997511;28;19960;-82
2022/08/13 04:15:09;;;;;;;;;;;18.10;60.90;;;;;;5004942;28;20253;-83
2022/08/13 04:17:36;;;;;;;;;;;18.10;60.80;;;;;;4993915;28;19914;-83
2022/08/13 04:20:03;;;;;;;;;;;18.10;60.10;;;;;;4985649;28;19914;-83
2022/08/13 04:22:28;;;;;;;;;;;18.10;61.30;;;;;;5002934;28;19921;-83
2022/08/13 04:24:54;;;;;;;;;;;18.00;61.80;;;;;;4989493;28;19914;-83
2022/08/13 04:27:19;;;;;;;;;;;17.90;62.20;;;;;;4990495;28;19921;-82
2022/08/13 04:29:45;;;;;;;;;;;17.80;62.30;;;;;;4994104;28;19917;-83
2022/08/13 04:32:10;;;;;;;;;;;17.90;62.20;;;;;;4977962;28;20004;-83
2022/08/13 04:34:36;;;;;;;;;;;17.90;62.00;;;;;;4974351;28;19972;-83
2022/08/13 04:37:01;;;;;;;;;;;17.90;62.00;;;;;;4988421;28;20407;-83
2022/08/13 04:39:27;;;;;;;;;;;17.90;62.50;;;;;;4994241;28;20351;-83
2022/08/13 04:41:53;;;;;;;;;;;18.00;61.80;;;;;;4977531;28;19992;-83
2022/08/13 04:44:19;;;;;;;;;;;18.00;61.80;;;;;;4998730;28;19964;-83
2022/08/13 04:46:45;;;;;;;;;;;17.90;62.10;;;;;;4968650;28;20081;-83
2022/08/13 04:49:12;;;;;;;;;;;17.90;62.60;;;;;;4975105;28;19933;-83
2022/08/13 04:51:38;;;;;;;;;;;17.80;63.20;;;;;;4991308;28;20428;-81
2022/08/13 04:54:03;;;;;;;;;;;17.80;63.70;;;;;;4975542;28;20311;-83
2022/08/13 04:56:29;;;;;;;;;;;17.80;64.00;;;;;;4979993;28;20044;-82
2022/08/13 04:58:55;;;;;;;;;;;17.80;63.80;;;;;;4973723;28;19914;-83
2022/08/13 05:01:21;;;;;;;;;;;17.90;64.20;;;;;;4993228;28;19921;-83
2022/08/13 05:03:46;;;;;;;;;;;18.00;64.10;;;;;;4999209;28;19914;-82
2022/08/13 05:06:12;;;;;;;;;;;18.00;64.00;;;;;;4988918;28;19921;-83
2022/08/13 05:08:40;;;;;;;;;;;18.00;63.20;;;;;;4978562;28;20012;-82
2022/08/13 05:11:06;;;;;;;;;;;18.00;63.90;;;;;;4996991;28;19924;-82
2022/08/13 05:13:33;;;;;;;;;;;18.10;63.60;;;;;;4975068;28;19910;-82
2022/08/13 05:15:59;;;;;;;;;;;18.10;64.20;;;;;;4986314;28;19921;-83
2022/08/13 05:18:26;;;;;;;;;;;18.20;64.30;;;;;;4992077;28;20388;-83
2022/08/13 05:20:53;;;;;;;;;;;18.20;64.50;;;;;;4994376;28;19918;-83
2022/08/13 05:23:18;;;;;;;;;;;18.20;64.00;;;;;;4985866;28;19990;-83
2022/08/13 05:25:44;;;;;;;;;;;18.20;64.10;;;;;;4990035;28;20454;-83
2022/08/13 05:28:10;;;;;;;;;;;18.30;63.50;;;;;;4983635;28;19917;-81
2022/08/13 05:30:39;;;;;;;;;;;18.30;63.20;;;;;;4970900;28;19917;-83
2022/08/13 05:33:16;;;;;;;;;;;18.30;62.80;;;;;;4973949;28;19965;-83
2022/08/13 05:35:47;;;;;;;;;;;18.50;61.60;;;;;;4987321;28;20274;-83
2022/08/13 05:38:13;;;;;;;;;;;18.50;62.90;;;;;;4989917;28;19976;-83
2022/08/13 05:40:38;;;;;;;;;;;18.50;62.50;;;;;;4961933;28;20555;-82
2022/08/13 05:43:17;;;;;;;;;;;18.60;63.10;;;;;;4959218;28;19968;-83
2022/08/13 05:45:46;;;;;;;;;;;18.60;62.40;;;;;;4971579;28;19922;-83
2022/08/13 05:48:12;;;;;;;;;;;18.70;62.60;;;;;;4975656;28;19922;-84
2022/08/13 05:50:37;;;;;;;;;;;18.80;63.00;;;;;;4957134;28;19945;-83
2022/08/13 05:53:08;;;;;;;;;;;18.80;62.80;;;;;;4957754;28;19928;-83
2022/08/13 05:55:34;;;;;;;;;;;18.90;62.70;;;;;;4957256;28;19999;-82
2022/08/13 05:58:00;;;;;;;;;;;19.00;62.50;;;;;;4960879;28;20395;-83
2022/08/13 06:03:25;;;;;;;;;;;19.10;63.00;;;;;;4982639;28;19944;-82
2022/08/13 06:05:53;;;;;;;;;;;19.20;63.00;;;;;;4969502;28;19914;-82
2022/08/13 06:08:21;;;;;;;;;;;19.30;62.60;;;;;;4970068;28;19921;-83
2022/08/13 06:10:47;;;;;;;;;;;19.40;62.10;;;;;;5005437;28;20008;-83
2022/08/13 06:13:14;;;;;;;;;;;19.50;61.50;;;;;;5007484;28;19937;-83
2022/08/13 06:15:40;;;;;;;;;;;19.60;61.00;;;;;;5004750;28;19927;-82
2022/08/13 06:18:06;;;;;;;;;;;19.80;60.30;;;;;;5014697;28;19930;-82
2022/08/13 06:20:32;;;;;;;;;;;20.00;60.80;;;;;;5005449;28;19920;-83
2022/08/13 06:22:58;;;;;;;;;;;20.10;60.80;;;;;;4982865;28;20001;-84
2022/08/13 06:25:24;;;;;;;;;;;20.40;59.70;;;;;;4990303;28;19964;-83
2022/08/13 06:27:50;;;;;;;;;;;20.80;58.80;;;;;;4971049;28;19929;-83
2022/08/13 06:30:18;;;;;;;;;;;21.10;58.20;;;;;;4973274;28;20408;-82
2022/08/13 06:32:44;;;;;;;;;;;21.10;57.10;;;;;;4991155;28;19917;-83
2022/08/13 06:35:10;;;;;;;;;;;21.10;57.80;;;;;;4979727;28;20345;-84
2022/08/13 06:37:41;;;;;;;;;;;20.90;58.30;;;;;;4978080;28;19913;-83
2022/08/13 06:40:09;;;;;;;;;;;20.80;58.80;;;;;;4989087;28;19914;-83
2022/08/13 06:42:35;;;;;;;;;;;20.70;57.80;;;;;;4987862;28;19926;-83
2022/08/13 06:45:04;;;;;;;;;;;20.70;58.00;;;;;;4973885;28;20253;-83
2022/08/13 06:47:31;;;;;;;;;;;20.80;57.90;;;;;;4982863;28;20020;-83
2022/08/13 06:49:59;;;;;;;;;;;20.80;57.60;;;;;;4991065;28;20340;-83
2022/08/13 06:52:25;;;;;;;;;;;20.80;58.40;;;;;;4986881;28;20012;-83
2022/08/13 06:54:50;;;;;;;;;;;21.00;57.60;;;;;;4989391;28;20032;-83
2022/08/13 06:57:16;;;;;;;;;;;21.10;57.50;;;;;;4969019;28;19922;-83
2022/08/13 06:59:41;;;;;;;;;;;21.10;57.90;;;;;;4988217;28;19920;-83
2022/08/13 07:02:09;;;;;;;;;;;21.10;56.90;;;;;;4969230;28;20540;-83
2022/08/13 07:04:34;;;;;;;;;;;21.20;56.20;;;;;;4968617;28;20385;-83
2022/08/13 07:07:00;;;;;;;;;;;21.40;55.40;;;;;;4984797;28;20016;-83
2022/08/13 07:09:26;;;;;;;;;;;21.40;55.90;;;;;;4992720;28;19918;-83
2022/08/13 07:11:52;;;;;;;;;;;21.50;55.80;;;;;;4992260;28;19963;-84
2022/08/13 07:14:17;;;;;;;;;;;21.50;56.00;;;;;;4990547;28;19953;-83
2022/08/13 07:16:44;;;;;;;;;;;21.60;55.90;;;;;;4989217;28;19914;-84
2022/08/13 07:19:13;;;;;;;;;;;21.60;55.70;;;;;;4986546;28;19965;-86
2022/08/13 07:21:39;;;;;;;;;;;21.60;55.80;;;;;;4979617;28;19924;-87
2022/08/13 07:24:06;;;;;;;;;;;21.80;56.00;;;;;;4992499;28;20444;-83
2022/08/13 07:26:33;;;;;;;;;;;21.90;56.20;;;;;;4985777;28;20044;-84
2022/08/13 07:29:00;;;;;;;;;;;22.10;55.90;;;;;;4974535;28;20028;-83
2022/08/13 07:31:27;;;;;;;;;;;22.10;55.30;;;;;;4974743;28;19913;-84
2022/08/13 07:33:53;;;;;;;;;;;22.20;54.40;;;;;;4991620;28;19918;-85
2022/08/13 07:36:19;;;;;;;;;;;22.20;54.60;;;;;;4974218;28;19920;-84
2022/08/13 07:38:45;;;;;;;;;;;22.30;54.00;;;;;;4981063;28;20052;-84
2022/08/13 07:41:13;;;;;;;;;;;22.30;53.90;;;;;;4990486;28;19993;-85
2022/08/13 07:43:43;;;;;;;;;;;22.50;54.20;;;;;;4994283;28;19921;-87
2022/08/13 07:46:15;;;;;;;;;;;22.60;52.80;;;;;;4976473;28;20416;-85
2022/08/13 07:48:43;;;;;;;;;;;22.80;53.30;;;;;;4991110;28;19926;-85
2022/08/13 07:51:12;;;;;;;;;;;23.00;51.80;;;;;;4992940;28;19918;-85
2022/08/13 07:53:39;;;;;;;;;;;22.90;52.50;;;;;;4987890;28;19918;-87
2022/08/13 07:56:06;;;;;;;;;;;23.20;50.80;;;;;;4977503;28;19910;-86
2022/08/13 07:58:33;;;;;;;;;;;23.30;50.10;;;;;;4974720;28;19914;-87
2022/08/13 08:00:59;;;;;;;;;;;23.30;49.80;;;;;;4975428;28;19992;-87
2022/08/13 08:03:30;;;;;;;;;;;23.30;50.80;;;;;;4976142;28;19922;-85
2022/08/13 08:05:57;;;;;;;;;;;23.50;51.50;;;;;;4990516;28;20020;-84
2022/08/13 08:08:24;;;;;;;;;;;23.50;50.90;;;;;;5002539;28;19906;-86
2022/08/13 08:10:51;;;;;;;;;;;23.70;50.00;;;;;;4979565;28;19921;-84
2022/08/13 08:13:16;;;;;;;;;;;23.70;49.80;;;;;;4991972;28;19921;-82
2022/08/13 08:15:45;;;;;;;;;;;23.70;49.90;;;;;;4997253;28;19910;-84
2022/08/13 08:18:11;;;;;;;;;;;23.70;49.80;;;;;;4982594;28;19924;-84
2022/08/13 08:20:37;;;;;;;;;;;23.70;50.40;;;;;;4977733;28;19918;-84
2022/08/13 08:23:03;;;;;;;;;;;23.70;49.50;;;;;;4988785;28;19960;-85
2022/08/13 08:25:29;;;;;;;;;;;23.80;49.10;;;;;;4979358;28;20363;-84
2022/08/13 08:27:54;;;;;;;;;;;23.90;49.30;;;;;;4991522;28;19932;-85
2022/08/13 08:30:20;;;;;;;;;;;24.10;48.30;;;;;;4988945;28;19914;-87
2022/08/13 08:32:52;;;;;;;;;;;24.20;48.00;;;;;;5001249;28;19910;-85
2022/08/13 08:35:19;;;;;;;;;;;24.20;48.10;;;;;;4995980;28;20009;-86
2022/08/13 08:43:14;;;;;;;;;;;24.40;47.10;;;;;;4991930;28;19928;-85
2022/08/13 08:45:40;;;;;;;;;;;24.40;47.20;;;;;;4974957;28;19928;-83
2022/08/13 08:48:06;;;;;;;;;;;24.50;47.80;;;;;;4990574;28;19945;-83
2022/08/13 08:50:33;;;;;;;;;;;24.50;47.10;;;;;;4971122;28;19914;-84
2022/08/13 08:55:43;;;;;;;;;;;24.60;47.00;;;;;;4990643;28;19921;-87
2022/08/13 08:58:10;;;;;;;;;;;25.00;45.40;;;;;;4971916;28;19914;-87
2022/08/13 09:00:36;;;;;;;;;;;25.10;44.60;;;;;;4976235;28;19910;-86
2022/08/13 09:03:02;;;;;;;;;;;25.00;44.30;;;;;;4987461;28;19922;-87
2022/08/13 09:05:28;;;;;;;;;;;25.00;45.20;;;;;;4975978;28;19922;-87
2022/08/13 09:07:54;;;;;;;;;;;25.00;45.60;;;;;;4990487;28;20274;-87
2022/08/13 09:10:20;;;;;;;;;;;25.20;43.90;;;;;;4992571;28;20324;-86
2022/08/13 09:12:47;;;;;;;;;;;25.20;44.60;;;;;;4987509;28;20344;-86
2022/08/13 09:15:14;;;;;;;;;;;25.10;45.50;;;;;;4988880;28;19913;-87
2022/08/13 09:17:40;;;;;;;;;;;25.10;45.80;;;;;;4985492;28;19914;-86
2022/08/13 09:20:12;;;;;;;;;;;25.20;44.00;;;;;;4985151;28;19910;-87
2022/08/13 09:22:40;;;;;;;;;;;25.20;44.20;;;;;;4979846;28;19924;-86
2022/08/13 09:25:06;;;;;;;;;;;25.40;43.20;;;;;;4976682;28;20013;-87
2022/08/13 09:27:34;;;;;;;;;;;25.50;43.50;;;;;;4981950;28;19921;-87
2022/08/13 09:30:00;;;;;;;;;;;25.60;43.30;;;;;;4979098;28;20060;-88
2022/08/13 09:32:28;;;;;;;;;;;25.70;42.90;;;;;;4985947;28;19914;-84
2022/08/13 09:34:54;;;;;;;;;;;25.70;43.50;;;;;;4998336;28;19920;-86
2022/08/13 09:37:20;;;;;;;;;;;25.80;42.00;;;;;;4992823;28;19957;-85
2022/08/13 09:39:51;;;;;;;;;;;25.80;42.60;;;;;;4971539;28;19960;-84
2022/08/13 09:42:24;;;;;;;;;;;25.80;41.00;;;;;;4996916;28;19928;-85
2022/08/13 09:44:54;;;;;;;;;;;25.80;42.00;;;;;;4997526;28;19918;-84
2022/08/13 09:47:20;;;;;;;;;;;25.90;41.00;;;;;;4988748;28;19925;-85
2022/08/13 09:49:48;;;;;;;;;;;26.10;40.40;;;;;;4992983;28;19957;-85
2022/08/13 09:52:13;;;;;;;;;;;26.00;41.10;;;;;;4981882;28;19918;-84
2022/08/13 09:54:40;;;;;;;;;;;26.10;41.40;;;;;;4981352;28;19918;-85
2022/08/13 09:57:06;;;;;;;;;;;26.10;40.90;;;;;;4993781;28;19918;-85
2022/08/13 09:59:32;;;;;;;;;;;26.00;41.10;;;;;;4966571;28;19921;-85
2022/08/13 10:01:58;;;;;;;;;;;26.20;40.30;;;;;;4999662;28;19918;-85
2022/08/13 10:04:26;;;;;;;;;;;26.40;40.20;;;;;;5009511;28;19925;-84
2022/08/13 10:06:51;;;;;;;;;;;26.30;41.10;;;;;;4991332;28;19898;-85
2022/08/13 10:09:17;;;;;;;;;;;26.50;41.30;;;;;;5001593;28;19924;-84
2022/08/13 10:11:42;;;;;;;;;;;26.60;40.60;;;;;;4982336;28;19913;-84
2022/08/13 10:14:08;;;;;;;;;;;26.70;39.50;;;;;;4991111;28;19921;-85
2022/08/13 10:16:35;;;;;;;;;;;26.70;38.60;;;;;;4991811;28;20009;-84
2022/08/13 10:19:02;;;;;;;;;;;26.60;38.50;;;;;;4994659;28;19960;-83
2022/08/13 10:21:28;;;;;;;;;;;26.60;38.70;;;;;;4991213;28;19918;-84
2022/08/13 10:23:54;;;;;;;;;;;26.70;38.30;;;;;;4990063;28;19968;-83
2022/08/13 10:26:19;;;;;;;;;;;26.90;36.10;;;;;;4975536;28;19945;-84
2022/08/13 10:28:48;;;;;;;;;;;27.10;36.30;;;;;;4976456;28;19924;-84
2022/08/13 10:31:14;;;;;;;;;;;27.10;36.80;;;;;;4989627;28;19913;-83
2022/08/13 10:33:39;;;;;;;;;;;27.20;34.90;;;;;;4985650;28;19914;-85
2022/08/13 10:36:06;;;;;;;;;;;27.20;35.10;;;;;;4989170;28;20009;-84
2022/08/13 10:38:32;;;;;;;;;;;27.30;35.80;;;;;;4981549;28;19910;-87
2022/08/13 10:41:01;;;;;;;;;;;27.40;36.40;;;;;;4997751;28;20191;-85
2022/08/13 10:43:27;;;;;;;;;;;27.50;35.50;;;;;;4990004;28;19918;-85
2022/08/13 10:45:58;;;;;;;;;;;27.50;36.10;;;;;;4984643;28;19921;-85
2022/08/13 10:48:27;;;;;;;;;;;27.30;35.10;;;;;;4993070;28;20392;-85
2022/08/13 10:50:53;;;;;;;;;;;27.40;36.30;;;;;;5008290;28;19914;-83
2022/08/13 10:56:04;;;;;;;;;;;27.50;35.00;;;;;;4987722;28;20009;-85
2022/08/13 10:58:30;;;;;;;;;;;27.60;34.50;;;;;;4990833;28;20000;-84
2022/08/13 11:00:56;;;;;;;;;;;27.60;34.30;;;;;;4993901;28;19960;-84
2022/08/13 11:03:22;;;;;;;;;;;27.50;33.90;;;;;;4997801;28;19914;-84
2022/08/13 11:05:48;;;;;;;;;;;27.50;33.40;;;;;;5003033;28;19964;-83
2022/08/13 11:08:13;;;;;;;;;;;27.40;34.10;;;;;;4993710;28;20513;-83
2022/08/13 11:10:39;;;;;;;;;;;27.50;35.90;;;;;;4983088;28;21557;-85
2022/08/13 11:13:05;;;;;;;;;;;27.60;34.70;;;;;;4972137;28;19949;-85
2022/08/13 11:15:31;;;;;;;;;;;27.80;35.50;;;;;;4990635;28;19914;-84
2022/08/13 11:17:57;;;;;;;;;;;27.80;35.20;;;;;;4973850;28;19920;-84
2022/08/13 11:20:24;;;;;;;;;;;28.00;33.60;;;;;;4973712;28;20400;-86
2022/08/13 11:22:51;;;;;;;;;;;28.10;35.20;;;;;;4991709;28;20001;-86
2022/08/13 11:25:17;;;;;;;;;;;28.10;34.50;;;;;;4974148;28;19913;-84
2022/08/13 11:27:43;;;;;;;;;;;28.10;35.90;;;;;;4990694;28;20407;-85
2022/08/13 11:30:09;;;;;;;;;;;28.00;35.40;;;;;;4974955;28;19914;-85
2022/08/13 11:32:34;;;;;;;;;;;28.10;35.50;;;;;;5009153;28;19921;-84
2022/08/13 11:35:00;;;;;;;;;;;28.20;35.60;;;;;;5008312;28;20306;-86
2022/08/13 11:37:25;;;;;;;;;;;28.10;36.40;;;;;;4992267;28;19977;-85
2022/08/13 11:39:51;;;;;;;;;;;28.20;36.50;;;;;;5005264;28;19997;-85
2022/08/13 11:42:16;;;;;;;;;;;28.30;34.70;;;;;;5000648;28;19937;-85
2022/08/13 11:44:42;;;;;;;;;;;28.40;33.90;;;;;;4995037;28;19996;-85
2022/08/13 11:47:14;;;;;;;;;;;28.20;35.30;;;;;;4974926;28;19925;-85
2022/08/13 11:49:39;;;;;;;;;;;28.20;35.60;;;;;;4986038;28;19917;-85
2022/08/13 11:52:05;;;;;;;;;;;28.20;35.30;;;;;;4993281;28;20013;-86
2022/08/13 11:54:30;;;;;;;;;;;28.10;36.30;;;;;;4984517;28;19968;-86
2022/08/13 11:56:56;;;;;;;;;;;28.30;36.30;;;;;;4993001;28;19913;-85
2022/08/13 11:59:21;;;;;;;;;;;28.30;35.70;;;;;;4980829;28;19914;-85
2022/08/13 12:01:47;;;;;;;;;;;28.40;35.60;;;;;;4992277;28;20001;-86
2022/08/13 12:04:12;;;;;;;;;;;28.30;33.90;;;;;;4979179;28;19920;-86
2022/08/13 12:06:44;;;;;;;;;;;28.20;34.70;;;;;;4979070;28;19917;-86
2022/08/13 12:09:09;;;;;;;;;;;28.10;34.20;;;;;;4976668;28;19918;-86
2022/08/13 12:11:35;;;;;;;;;;;28.00;35.00;;;;;;4980419;28;19924;-87
2022/08/13 12:14:01;;;;;;;;;;;28.00;34.80;;;;;;4981299;28;19929;-85
2022/08/13 12:16:26;;;;;;;;;;;27.80;35.60;;;;;;4993912;28;19914;-85
2022/08/13 12:18:52;;;;;;;;;;;27.90;35.90;;;;;;4976155;28;19924;-85
2022/08/13 12:21:18;;;;;;;;;;;28.00;36.50;;;;;;4991127;28;20001;-84
2022/08/13 12:23:43;;;;;;;;;;;28.30;35.60;;;;;;4971018;28;19921;-86
2022/08/13 12:26:09;;;;;;;;;;;28.30;35.00;;;;;;4994688;28;19924;-85
2022/08/13 12:28:34;;;;;;;;;;;28.30;35.30;;;;;;4973499;28;19922;-86
2022/08/13 12:31:27;;;;;;;;;;;28.30;36.00;;;;;;5000357;28;19914;-86
2022/08/13 12:33:58;;;;;;;;;;;28.50;34.80;;;;;;4992274;28;19913;-87
2022/08/13 12:36:53;;;;;;;;;;;28.50;34.60;;;;;;4997203;28;20314;-86
2022/08/13 12:45:34;;;;;;;;;;;28.80;35.20;;;;;;4954048;28;19930;-89
2022/08/13 12:48:07;;;;;;;;;;;28.80;34.40;;;;;;4985484;28;19926;-86
2022/08/13 12:51:31;;;;;;;;;;;28.90;33.90;;;;;;4987511;28;20005;-86
2022/08/13 12:53:42;;;;;;;;;;;28.90;34.80;;;;;;4985008;28;19920;-86
2022/08/13 12:56:11;;;;;;;;;;;28.80;35.90;;;;;;4981802;28;20016;-86
2022/08/13 12:58:42;;;;;;;;;;;28.60;35.50;;;;;;4977276;28;20400;-87
2022/08/13 13:01:59;;;;;;;;;;;28.70;35.80;;;;;;4977674;28;19921;-86
2022/08/13 13:04:43;;;;;;;;;;;28.60;35.50;;;;;;4965097;28;19898;-85
2022/08/13 13:07:27;;;;;;;;;;;28.80;34.70;;;;;;4997234;28;19961;-85
2022/08/13 13:09:53;;;;;;;;;;;28.80;35.50;;;;;;4994175;28;19914;-85
2022/08/13 13:12:19;;;;;;;;;;;28.80;35.30;;;;;;5019848;28;19906;-88
2022/08/13 13:14:47;;;;;;;;;;;28.80;35.50;;;;;;5014791;28;19929;-90
2022/08/13 13:17:13;;;;;;;;;;;28.70;35.70;;;;;;4975670;28;19918;-87
2022/08/13 13:19:43;;;;;;;;;;;29.10;36.00;;;;;;4972711;28;19924;-87
2022/08/13 13:22:38;;;;;;;;;;;29.00;35.40;;;;;;4965447;28;19949;-87
2022/08/13 13:25:04;;;;;;;;;;;29.10;35.00;;;;;;4966217;28;19922;-87
2022/08/13 13:27:30;;;;;;;;;;;29.00;35.90;;;;;;4983709;28;19921;-85
2022/08/13 13:29:56;;;;;;;;;;;29.00;36.00;;;;;;4989814;28;19922;-83
2022/08/13 13:32:22;;;;;;;;;;;29.00;34.80;;;;;;4987184;28;19929;-85
2022/08/13 13:34:50;;;;;;;;;;;29.00;35.30;;;;;;4982269;28;19961;-85
2022/08/13 13:37:15;;;;;;;;;;;29.00;34.70;;;;;;4971227;28;19922;-85
2022/08/13 13:39:44;;;;;;;;;;;29.00;34.50;;;;;;4987750;28;20361;-86
2022/08/13 13:42:13;;;;;;;;;;;28.90;35.20;;;;;;4984966;28;20380;-88
2022/08/13 13:44:38;;;;;;;;;;;28.90;34.90;;;;;;4991439;28;19926;-87
2022/08/13 13:47:04;;;;;;;;;;;29.00;34.60;;;;;;4968579;28;19918;-87
2022/08/13 13:49:29;;;;;;;;;;;29.20;35.60;;;;;;4968436;28;19925;-85
2022/08/13 13:51:57;;;;;;;;;;;29.20;35.10;;;;;;4985722;28;20131;-87
2022/08/13 13:54:23;;;;;;;;;;;29.20;35.20;;;;;;4989050;28;19913;-86
2022/08/13 13:56:48;;;;;;;;;;;29.20;35.30;;;;;;4986289;28;19920;-85
2022/08/13 13:59:24;;;;;;;;;;;29.30;34.90;;;;;;4971563;28;19991;-86
2022/08/13 14:01:50;;;;;;;;;;;29.30;34.70;;;;;;4984051;28;19921;-86
2022/08/13 14:04:16;;;;;;;;;;;29.10;34.70;;;;;;4974794;28;19914;-84
2022/08/13 14:06:44;;;;;;;;;;;29.10;34.80;;;;;;4975304;28;19913;-86
2022/08/13 14:09:09;;;;;;;;;;;29.10;35.40;;;;;;4984714;28;20318;-84
2022/08/13 14:11:35;;;;;;;;;;;29.20;34.20;;;;;;4991388;28;19960;-84
2022/08/13 14:14:01;;;;;;;;;;;29.20;34.40;;;;;;4989272;28;19929;-85
2022/08/13 14:16:26;;;;;;;;;;;29.10;34.90;;;;;;4977909;28;20269;-85
2022/08/13 14:18:53;;;;;;;;;;;29.20;36.20;;;;;;5002717;28;19941;-87
2022/08/13 14:21:21;;;;;;;;;;;29.10;35.10;;;;;;4976165;28;19914;-87
2022/08/13 14:23:47;;;;;;;;;;;29.10;35.50;;;;;;4974979;28;19921;-83
2022/08/13 14:26:13;;;;;;;;;;;29.10;35.30;;;;;;5000757;28;19918;-83
2022/08/13 14:28:42;;;;;;;;;;;29.30;34.60;;;;;;4980957;28;19944;-82
2022/08/13 14:31:10;;;;;;;;;;;29.30;34.30;;;;;;4993245;28;19929;-83
2022/08/13 14:33:38;;;;;;;;;;;29.20;34.40;;;;;;4998249;28;19918;-84
2022/08/13 14:36:03;;;;;;;;;;;29.10;35.30;;;;;;4989119;28;19993;-84
2022/08/13 14:38:29;;;;;;;;;;;29.10;35.50;;;;;;4978326;28;19945;-85
2022/08/13 14:40:56;;;;;;;;;;;29.30;33.80;;;;;;4977738;28;19917;-85
2022/08/13 14:43:26;;;;;;;;;;;29.30;33.60;;;;;;4996739;28;19917;-85
2022/08/13 14:46:23;;;;;;;;;;;29.20;34.20;;;;;;5014937;22;19929;-87